ENSS

Vardø , Svartnes Airport

Vardø, Norway
METAR ENSS 171020Z 22018KT 9999 FEW044 M05/M09 Q1017 RMK WIND 500FT 22025KT
Observed Flight Rules
Dec-17 @ 10:20 UTC (34 minutes ago) Visual Flight Rules
Wind Visibility Clouds
220° at 18 knots 10,000+ meters
  • Few at 4,400' AGL
Temperatures Readings
Current -5°C / 23°F
Dewpoint -9°C / 16°F
Humidity 74%
Altimeter 30.03" Hg
Pressure 1017 hPa
Elevation 12
METAR ENSS 171020Z 22018KT 9999 FEW044 M05/M09 Q1017 RMK WIND 500FT 22025KT
Observed Flight Rules
Dec-17 @ 10:20 UTC
(34 minutes ago)
VFR
Wind Visibility
220° at 18 knots 10,000+ meters
Clouds
  • Few at 4,400' AGL
Temperature Dewpoint
-5°C / 23°F -9°C / 16°F
Humidity Altimeter Pressure
74% 30.03" Hg 1017 hPa